WetterOnline ( https://www.wetteronline.de )

Wetter aktuell Petersdorf

Aktuelles Wetter: Augsburg/Mühlhausen (477m)

6-stündlich | Neueste Meldungen
Ortszeit Temperatur Wetter
Do, 25.04. 2:00 6.9° C wolkenlos
Mi, 24.04. 20:00 18.9° C bedeckt
Mi, 24.04. 14:00 24.5° C leicht bewölkt
Mi, 24.04. 8:00 9.5° C wolkenlos
Mi, 24.04. 2:00 8.0° C bewölkt
Di, 23.04. 20:00 17.5° C bedeckt
Di, 23.04. 14:00 19.3° C bedeckt
Di, 23.04. 8:00 10.3° C leicht bewölkt
Ortszeit Temperatur Wetter
Do, 25.04. 5:30 5.6° C leicht bewölkt
Do, 25.04. 5:20 5.6° C leicht bewölkt
Do, 25.04. 5:10 7.2° C wolkig
Do, 25.04. 5:00 7.2° C bewölkt
Do, 25.04. 4:50 7.2° C bewölkt
Do, 25.04. 4:40 6.7° C bewölkt
Do, 25.04. 4:30 7.5° C bewölkt
Do, 25.04. 4:00 6.5° C wolkig
Do, 25.04. 3:30 5.6° C leicht bewölkt
Do, 25.04. 3:00 7.5° C leicht bewölkt
Do, 25.04. 2:30 7.8° C wolkenlos
Ortszeit Relative Feuchte Sichtweite
Do, 25.04. 2:00 86% 70 km
Mi, 24.04. 20:00 36% 8 km
Mi, 24.04. 14:00 25% 25 km
Mi, 24.04. 8:00 76% 26 km
Mi, 24.04. 2:00 80% 27 km
Di, 23.04. 20:00 48% 45 km
Di, 23.04. 14:00 42% 29 km
Di, 23.04. 8:00 65% 24 km
Ortszeit Relative Feuchte Sichtweite
Do, 25.04. 5:30 91% 30 km
Do, 25.04. 5:20 91% -
Do, 25.04. 5:10 88% -
Do, 25.04. 5:00 88% 50 km
Do, 25.04. 4:50 88% -
Do, 25.04. 4:40 88% -
Do, 25.04. 4:30 87% 65 km
Do, 25.04. 4:00 88% 55 km
Do, 25.04. 3:30 89% 5.0 km
Do, 25.04. 3:00 87% 8 km
Do, 25.04. 2:30 83% 5.0 km
Ortszeit Niederschlagsmenge Niederschlagsart
Do, 25.04. 2:00 0.0 l/m2 in 6 Std. -
Mi, 24.04. 20:00 0.0 l/m2 in 12 Std. -
Mi, 24.04. 14:00 0.0 l/m2 in 6 Std. -
Mi, 24.04. 8:00 0.0 l/m2 in 12 Std. -
Mi, 24.04. 2:00 0.0 l/m2 in 6 Std. -
Di, 23.04. 20:00 0.0 l/m2 in 12 Std. -
Di, 23.04. 14:00 0.0 l/m2 in 6 Std. -
Di, 23.04. 8:00 0.0 l/m2 in 12 Std. -
Ortszeit Niederschlagsmenge Niederschlagsart
Do, 25.04. 5:30 0.0 l/m2 in 1 Std. -
Do, 25.04. 5:20 keine Meldung -
Do, 25.04. 5:10 keine Meldung -
Do, 25.04. 5:00 0.0 l/m2 in 1 Std. -
Do, 25.04. 4:50 keine Meldung -
Do, 25.04. 4:40 keine Meldung -
Do, 25.04. 4:30 0.0 l/m2 in 1 Std. -
Do, 25.04. 4:00 0.0 l/m2 in 1 Std. -
Do, 25.04. 3:30 0.0 l/m2 in 1 Std. -
Do, 25.04. 3:00 0.0 l/m2 in 1 Std. -
Do, 25.04. 2:30 0.0 l/m2 in 1 Std. -
Ortszeit Stärke Spitze Richtung
km/h Bft. km/h Grad Sektor
Do, 25.04. 2:00 7 2 54 130° SO
Mi, 24.04. 20:00 7 2 40 180° S
Mi, 24.04. 14:00 22 4 43 190° S
Mi, 24.04. 8:00 7 2 14 60° NO
Mi, 24.04. 2:00 6 1 41 40° NO
Di, 23.04. 20:00 30 5 44 100° O
Di, 23.04. 14:00 18 3 29 120° SO
Di, 23.04. 8:00 7 2 22 90° O
Ortszeit Stärke Spitze Richtung
km/h Bft. km/h Grad Sektor
Do, 25.04. 5:30 4 1 7 160° S
Do, 25.04. 5:20 4 1 - 160° S
Do, 25.04. 5:10 6 1 - 150° SO
Do, 25.04. 5:00 6 1 11 170° S
Do, 25.04. 4:50 6 1 - 170° S
Do, 25.04. 4:40 7 2 - 180° S
Do, 25.04. 4:30 7 2 11 160° S
Do, 25.04. 4:00 7 2 11 160° S
Do, 25.04. 3:30 6 1 7 160° S
Do, 25.04. 3:00 7 2 11 150° SO
Do, 25.04. 2:30 7 2 11 160° S
Ortszeit Untergrenze Bedeckung Gattung
total tief tief mittel hoch
Do, 25.04. 2:00 - 0/8 0/8 - - -
Mi, 24.04. 20:00 6000 m 8/8 8/8 - - -
Mi, 24.04. 14:00 2700 m 7/8 1/8 - - -
Mi, 24.04. 8:00 - 0/8 0/8 - - -
Mi, 24.04. 2:00 3600 m 7/8 6/8 - - -
Di, 23.04. 20:00 3600 m 8/8 8/8 - - -
Di, 23.04. 14:00 2100 m 8/8 8/8 - - -
Di, 23.04. 8:00 5700 m 5/8 2/8 - - -
Ortszeit Bedeckungsgrad in Achtel und Wolkenuntergrenze
Do, 25.04. 5:30 3(6300m) 5(7200m)
Do, 25.04. 5:20 3(6300m) 5(7200m)
Do, 25.04. 5:10 2(6000m) 7(7200m)
Do, 25.04. 5:00 6(6900m) 7(7500m)
Do, 25.04. 4:50 6(6900m) 7(7500m)
Do, 25.04. 4:40 7(6900m)
Do, 25.04. 4:30 7(6900m) 8(7500m) 8(8400m)
Do, 25.04. 4:00 7(7800m) 8(8400m)
Do, 25.04. 3:30 3(7500m) 5(8700m)
Do, 25.04. 3:00 4(7800m) 6(9000m)
Do, 25.04. 2:30 keine Wolken
Ortszeit Luftdruck NN (hPa) Tendenz (hPa in 3 Std.)
Do, 25.04. 2:00 1012 + 1,3
Mi, 24.04. 20:00 1003 + 0,9
Mi, 24.04. 14:00 1002 - 0,8
Mi, 24.04. 8:00 1004 + 1,5
Mi, 24.04. 2:00 1002 + 0,6
Di, 23.04. 20:00 998 + 0,3
Di, 23.04. 14:00 998 - 0,6
Di, 23.04. 8:00 1000 - 0,4
Ortszeit Luftdruck NN (hPa) Tendenz (hPa in 3 Std.)
Do, 25.04. 5:30 1013 + 0,2
Do, 25.04. 5:20 1013 keine Meldung
Do, 25.04. 5:10 1012 keine Meldung
Do, 25.04. 5:00 1013 + 0,4
Do, 25.04. 4:50 1013 keine Meldung
Do, 25.04. 4:40 1013 keine Meldung
Do, 25.04. 4:30 1012 + 0,3
Do, 25.04. 4:00 1012 0,0
Do, 25.04. 3:30 1013 + 0,2
Do, 25.04. 3:00 1012 + 1,0
Do, 25.04. 2:30 1012 + 1,3
Ortszeit Schneehöhe (cm)
Do, 25.04. 2:00 0
Mi, 24.04. 20:00 0
Mi, 24.04. 14:00 0
Mi, 24.04. 8:00 0
Mi, 24.04. 2:00 0
Di, 23.04. 20:00 0
Di, 23.04. 14:00 0
Di, 23.04. 8:00 0
Ortszeit Schneehöhe (cm)
Do, 25.04. 5:30 0
Do, 25.04. 5:20 0
Do, 25.04. 5:10 0
Do, 25.04. 5:00 0
Do, 25.04. 4:50 0
Do, 25.04. 4:40 0
Do, 25.04. 4:30 0
Do, 25.04. 4:00 0
Do, 25.04. 3:30 0
Do, 25.04. 3:00 0
Do, 25.04. 2:30 0
Link zu dieser Seite / Seite empfehlen

Das Wetter in ...